Time;durP1;ratioP1;P1;durP2;ratioP2;P2;SDS_P1;SDS_P2;PMS_P1;PMS_P2;Temp;Humidity;BMP_temperature;BMP_pressure;BME280_temperature;BME280_humidity;BME280_pressure;Samples;Min_cycle;Max_cycle;Signal;HPM_P1;HPM_P2
2022/04/25 00:00:36;;;;;;;2.88;0.60;;;;;;;22.95;29.49;101269.50;4988755;28;20074;-72
2022/04/25 00:03:05;;;;;;;1.13;0.70;;;;;;;22.87;28.64;101261.69;4987794;28;20046;-71
2022/04/25 00:05:34;;;;;;;2.38;0.60;;;;;;;22.82;28.90;101260.91;4988418;28;20058;-70
2022/04/25 00:08:02;;;;;;;4.45;0.63;;;;;;;22.76;29.33;101259.19;4988379;28;20556;-70
2022/04/25 00:10:31;;;;;;;1.55;0.50;;;;;;;22.77;31.20;101254.81;4988285;28;20070;-70
2022/04/25 00:12:59;;;;;;;1.45;0.60;;;;;;;22.80;30.22;101257.41;4987255;28;20660;-71
2022/04/25 00:15:29;;;;;;;1.13;0.68;;;;;;;22.82;30.79;101254.75;4988634;28;20492;-72
2022/04/25 00:17:58;;;;;;;1.58;0.60;;;;;;;22.83;31.38;101256.50;4987976;28;20047;-72
2022/04/25 00:20:26;;;;;;;4.40;0.90;;;;;;;22.66;30.96;101236.47;4986914;28;20479;-71
2022/04/25 00:22:54;;;;;;;0.90;0.60;;;;;;;22.51;31.39;101242.81;4988920;28;20138;-74
2022/04/25 00:25:25;;;;;;;3.08;0.80;;;;;;;22.54;32.30;101240.16;4992611;28;20144;-75
2022/04/25 00:27:54;;;;;;;1.33;0.68;;;;;;;22.59;31.66;101234.81;4992925;28;20050;-74
2022/04/25 00:30:22;;;;;;;1.63;0.80;;;;;;;22.60;32.44;101239.19;4992034;28;20112;-74
2022/04/25 00:32:52;;;;;;;1.40;0.73;;;;;;;22.62;32.68;101234.78;4991667;28;20097;-74
2022/04/25 00:35:21;;;;;;;1.98;0.70;;;;;;;22.70;33.50;101235.56;4992234;28;20054;-73
2022/04/25 00:37:49;;;;;;;1.30;0.80;;;;;;;22.72;33.47;101219.69;4992445;28;20130;-72
2022/04/25 00:40:20;;;;;;;1.48;0.75;;;;;;;22.74;32.92;101218.78;4992464;28;20105;-72
2022/04/25 00:42:49;;;;;;;2.53;0.65;;;;;;;22.77;32.49;101228.44;4992432;28;20090;-73
2022/04/25 00:45:19;;;;;;;0.80;0.50;;;;;;;22.74;33.00;101212.63;4994271;28;20046;-72
2022/04/25 00:47:48;;;;;;;1.10;0.60;;;;;;;22.74;33.04;101212.63;4992861;28;20046;-74
2022/04/25 00:50:18;;;;;;;0.75;0.70;;;;;;;22.62;31.42;101216.31;4992458;28;20042;-74
2022/04/25 00:52:46;;;;;;;1.35;0.63;;;;;;;22.48;32.51;101213.84;4991982;28;20089;-73
2022/04/25 00:55:15;;;;;;;3.17;0.60;;;;;;;22.44;33.01;101211.25;4991706;28;20062;-72
2022/04/25 00:57:43;;;;;;;1.60;0.93;;;;;;;22.44;33.45;101203.34;4992082;28;20133;-74
2022/04/25 01:00:14;;;;;;;1.52;0.77;;;;;;;22.46;32.12;101204.22;4991750;28;20050;-75
2022/04/25 01:02:42;;;;;;;1.25;0.70;;;;;;;22.27;32.03;101193.91;4991529;28;20140;-72
2022/04/25 01:05:11;;;;;;;2.03;0.85;;;;;;;22.21;32.77;101188.69;4991244;28;20590;-72
2022/04/25 01:07:41;;;;;;;4.20;0.90;;;;;;;22.16;33.06;101182.56;4991298;28;20129;-71
2022/04/25 01:10:12;;;;;;;1.67;0.80;;;;;;;22.09;34.22;101176.50;4991402;28;20084;-71
2022/04/25 01:12:40;;;;;;;2.70;1.65;;;;;;;22.09;34.33;101188.81;4991144;28;20571;-71
2022/04/25 01:15:11;;;;;;;3.20;0.88;;;;;;;22.06;34.75;101180.91;4991608;28;20659;-72
2022/04/25 01:17:53;;;;;;;1.50;0.70;;;;;;;22.01;33.76;101178.31;4991579;28;20488;-71
2022/04/25 01:20:22;;;;;;;1.48;0.82;;;;;;;21.98;34.52;101183.63;4990433;28;20065;-72
2022/04/25 01:27:15;;;;;;;2.67;0.73;;;;;;;22.02;34.26;101189.75;4990834;28;20474;-72
2022/04/25 01:28:33;;;;;;;2.65;0.80;;;;;;;22.02;34.94;101180.09;4991028;28;20486;-72
2022/04/25 01:31:02;;;;;;;1.27;0.60;;;;;;;22.07;34.73;101177.41;4992072;28;20050;-73
2022/04/25 01:33:31;;;;;;;1.63;0.90;;;;;;;22.07;34.26;101182.69;4990618;28;20054;-73
2022/04/25 01:35:59;;;;;;;4.10;0.80;;;;;;;22.05;34.11;101182.69;4990086;28;20050;-73
2022/04/25 01:38:28;;;;;;;2.50;0.80;;;;;;;22.05;34.01;101185.31;4990907;28;20042;-72
2022/04/25 01:40:58;;;;;;;1.85;0.88;;;;;;;22.01;32.85;101185.38;4991510;28;20108;-73
2022/04/25 01:43:27;;;;;;;1.58;0.68;;;;;;;21.98;31.51;101182.78;4990042;28;20436;-72
2022/04/25 01:45:55;;;;;;;1.45;0.77;;;;;;;21.83;31.00;101179.44;4990595;28;20149;-73
2022/04/25 01:48:24;;;;;;;3.15;0.80;;;;;;;21.86;28.63;101184.66;4990437;28;20042;-71
2022/04/25 01:50:53;;;;;;;1.80;0.80;;;;;;;21.80;29.17;101189.97;4991102;28;20456;-71
2022/04/25 01:53:21;;;;;;;2.33;0.90;;;;;;;21.67;27.98;101177.81;4990097;28;20497;-71
2022/04/25 01:55:50;;;;;;;2.60;0.80;;;;;;;21.65;27.28;101184.88;4989967;28;20168;-70
2022/04/25 01:58:20;;;;;;;1.23;0.60;;;;;;;21.58;27.46;101188.41;4991100;28;20540;-71
2022/04/25 02:00:49;;;;;;;2.10;0.88;;;;;;;21.47;27.49;101181.50;4990909;28;20057;-69
2022/04/25 02:03:17;;;;;;;1.52;0.60;;;;;;;21.38;26.20;101186.81;4990129;28;20053;-71
2022/04/25 02:05:46;;;;;;;2.50;0.80;;;;;;;21.28;25.95;101186.03;4990965;28;20128;-70
2022/04/25 02:08:15;;;;;;;3.70;0.75;;;;;;;21.20;26.76;101193.09;4990508;28;20598;-70
2022/04/25 02:11:19;;;;;;;1.42;0.50;;;;;;;21.13;27.77;101179.09;4980489;28;20047;-70
2022/04/25 02:13:34;;;;;;;3.65;0.82;;;;;;;21.05;27.18;101188.84;4989656;28;20057;-69
2022/04/25 02:16:03;;;;;;;3.58;0.65;;;;;;;21.00;27.27;101195.00;4991409;28;20106;-71
2022/04/25 02:18:31;;;;;;;2.40;0.65;;;;;;;20.88;27.47;101188.91;4993200;28;20518;-71
2022/04/25 02:21:00;;;;;;;2.63;0.85;;;;;;;20.80;27.50;101189.84;4992106;28;20108;-70
2022/04/25 02:23:28;;;;;;;3.20;0.70;;;;;;;20.70;27.13;101189.91;4990328;28;20047;-70
2022/04/25 02:25:57;;;;;;;3.38;0.85;;;;;;;20.61;28.02;101187.31;4990095;28;20054;-70
2022/04/25 02:28:25;;;;;;;2.92;1.00;;;;;;;20.49;26.64;101188.22;4989696;28;20480;-72
2022/04/25 02:30:58;;;;;;;2.15;0.80;;;;;;;20.45;27.48;101190.88;4990370;28;20121;-71
2022/04/25 02:33:27;;;;;;;2.20;0.90;;;;;;;20.39;28.16;101197.03;4988950;28;20129;-71
2022/04/25 02:35:56;;;;;;;2.58;0.80;;;;;;;20.34;27.73;101197.91;4990398;28;20054;-71
2022/04/25 02:38:24;;;;;;;2.50;1.00;;;;;;;20.22;27.47;101197.09;4990283;28;20050;-71
2022/04/25 02:41:05;;;;;;;3.40;1.10;;;;;;;20.14;27.87;101205.88;4990206;28;20082;-71
2022/04/25 02:43:35;;;;;;;3.05;1.05;;;;;;;20.00;26.88;101198.91;4989155;28;20620;-71
2022/04/25 02:46:08;;;;;;;3.35;1.00;;;;;;;19.91;27.67;101204.19;4988239;28;20058;-70
2022/04/25 02:48:38;;;;;;;1.90;0.90;;;;;;;19.82;28.26;101207.69;4989959;28;20046;-71
2022/04/25 02:51:07;;;;;;;3.65;1.10;;;;;;;19.76;28.53;101209.44;4990176;28;20050;-70
2022/04/25 02:53:36;;;;;;;3.83;1.55;;;;;;;19.67;28.27;101211.16;4988989;28;20109;-71
2022/04/25 02:56:05;;;;;;;1.70;1.17;;;;;;;19.60;28.55;101209.41;4989305;28;20113;-71
2022/04/25 02:58:35;;;;;;;2.60;1.25;;;;;;;19.53;29.02;101207.69;4989708;28;20120;-72
2022/04/25 03:01:06;;;;;;;2.28;1.40;;;;;;;19.42;29.20;101209.44;4989798;28;20047;-71
2022/04/25 03:03:35;;;;;;;4.47;1.70;;;;;;;19.33;29.12;101212.03;4988931;28;20050;-72
2022/04/25 03:06:05;;;;;;;4.10;1.25;;;;;;;19.24;28.47;101219.06;4989285;28;20547;-71
2022/04/25 03:08:34;;;;;;;3.00;1.30;;;;;;;19.16;28.53;101219.91;4989295;28;20073;-70
2022/04/25 03:11:05;;;;;;;4.22;1.50;;;;;;;19.08;29.47;101224.25;4992729;28;20061;-70
2022/04/25 03:13:35;;;;;;;3.95;1.63;;;;;;;19.02;29.58;101226.00;4991473;28;20061;-70
2022/04/25 03:16:06;;;;;;;2.85;1.50;;;;;;;18.97;30.26;101230.38;4989977;28;20138;-71
2022/04/25 03:18:35;;;;;;;3.50;1.30;;;;;;;18.91;31.03;101225.09;4988780;28;20496;-68
2022/04/25 03:21:05;;;;;;;3.72;1.50;;;;;;;18.84;34.34;101225.94;4988905;28;20050;-69
2022/04/25 03:23:36;;;;;;;4.55;1.35;;;;;;;18.72;35.44;101228.50;4988274;28;20060;-69
2022/04/25 03:26:04;;;;;;;3.75;1.58;;;;;;;18.60;32.49;101229.34;4988564;28;20056;-70
2022/04/25 03:28:33;;;;;;;4.07;1.40;;;;;;;18.49;31.33;101226.69;4988684;28;20681;-69
2022/04/25 03:31:01;;;;;;;4.95;1.40;;;;;;;18.38;34.23;101230.97;4988706;28;20182;-71
2022/04/25 03:33:31;;;;;;;4.07;2.05;;;;;;;18.26;35.74;101236.16;4988159;28;20125;-74
2022/04/25 03:36:01;;;;;;;3.22;1.45;;;;;;;18.13;33.39;101240.44;4989102;28;20608;-68
2022/04/25 03:38:30;;;;;;;4.40;1.50;;;;;;;17.94;37.23;101242.94;4989054;28;20052;-68
2022/04/25 03:40:59;;;;;;;3.08;1.30;;;;;;;17.83;38.97;101247.22;4987891;28;20047;-67
2022/04/25 03:43:28;;;;;;;2.75;1.52;;;;;;;17.77;39.13;101247.13;4988638;28;20050;-67
2022/04/25 03:45:56;;;;;;;13.38;3.45;;;;;;;17.71;40.16;101247.09;4988361;28;20129;-68
2022/04/25 03:48:25;;;;;;;4.30;1.30;;;;;;;17.55;37.11;101252.22;4988388;28;20503;-68
2022/04/25 03:50:55;;;;;;;4.72;1.45;;;;;;;17.40;38.34;101246.81;4988783;28;20100;-67
2022/04/25 03:53:23;;;;;;;3.00;1.42;;;;;;;17.32;41.51;101257.22;4987861;28;20520;-68
2022/04/25 03:58:33;;;;;;;4.18;1.52;;;;;;;17.06;38.47;101263.91;4945351;28;20061;-68
2022/04/25 04:01:02;;;;;;;5.20;1.80;;;;;;;16.88;39.20;101264.56;4989061;28;20591;-68
2022/04/25 04:03:32;;;;;;;2.95;1.48;;;;;;;16.79;38.95;101267.97;4988892;28;20089;-68
2022/04/25 04:06:02;;;;;;;2.78;1.50;;;;;;;16.65;41.55;101264.25;4991864;28;20412;-68
2022/04/25 04:08:31;;;;;;;4.57;1.85;;;;;;;16.63;41.02;101287.78;4989565;28;20046;-67
2022/04/25 04:10:59;;;;;;;4.63;1.55;;;;;;;16.58;41.19;101289.44;4988586;28;20129;-67
2022/04/25 04:13:29;;;;;;;5.85;2.50;;;;;;;16.51;40.64;101288.47;4987742;28;20078;-67
2022/04/25 04:15:57;;;;;;;6.43;1.70;;;;;;;16.43;43.59;101290.13;4989081;28;20057;-67
2022/04/25 04:18:26;;;;;;;5.13;1.73;;;;;;;16.32;43.52;101299.53;4988317;28;20118;-68
2022/04/25 04:20:54;;;;;;;2.60;1.42;;;;;;;16.28;44.64;101295.97;4987774;28;20054;-67
2022/04/25 04:23:25;;;;;;;4.38;1.73;;;;;;;16.21;46.25;101303.72;4988132;28;20130;-67
2022/04/25 04:25:53;;;;;;;4.45;1.48;;;;;;;16.09;46.92;101300.06;4988547;28;20090;-67
2022/04/25 04:28:22;;;;;;;2.45;1.25;;;;;;;16.00;47.78;101299.91;4987531;28;20089;-68
2022/04/25 04:30:51;;;;;;;2.55;1.17;;;;;;;16.02;48.81;101303.44;4988639;28;20046;-69
2022/04/25 04:33:19;;;;;;;3.38;1.25;;;;;;;16.03;48.36;101304.28;4988396;28;20054;-68
2022/04/25 04:38:46;;;;;;;3.13;1.30;;;;;;;15.89;49.68;101311.91;4927819;29;20478;-68
2022/04/25 04:41:15;;;;;;;3.65;1.00;;;;;;;15.85;50.48;101307.47;4975207;28;20085;-68
2022/04/25 04:43:43;;;;;;;4.78;1.35;;;;;;;15.82;52.17;101307.44;4988391;28;20101;-68
2022/04/25 04:46:12;;;;;;;4.65;1.08;;;;;;;15.81;53.26;101313.53;4988290;28;20076;-68
2022/04/25 04:48:40;;;;;;;4.95;1.60;;;;;;;15.73;52.78;101304.69;4987768;28;20081;-68
2022/04/25 04:51:09;;;;;;;2.78;0.88;;;;;;;15.70;53.68;101309.00;4988407;28;20108;-68
2022/04/25 04:53:37;;;;;;;5.13;1.13;;;;;;;15.60;54.41;101296.63;4988230;28;20540;-69
2022/04/25 04:56:07;;;;;;;4.47;1.13;;;;;;;15.66;54.91;101316.69;4988349;28;20534;-67
2022/04/25 04:58:36;;;;;;;2.72;1.10;;;;;;;15.68;54.75;101323.69;4991081;28;20089;-68
2022/04/25 05:01:04;;;;;;;2.08;1.48;;;;;;;15.64;54.78;101314.06;4990831;28;20138;-68
2022/04/25 05:03:33;;;;;;;1.55;0.85;;;;;;;15.52;55.00;101328.63;4988461;28;20132;-67
2022/04/25 05:06:01;;;;;;;2.70;1.10;;;;;;;15.42;55.88;101331.06;4988557;28;20144;-68
2022/04/25 05:08:29;;;;;;;5.03;1.10;;;;;;;15.39;55.94;101330.09;4987680;28;20097;-68
2022/04/25 05:10:58;;;;;;;4.50;1.08;;;;;;;15.34;57.80;101326.53;4991069;28;20047;-68
2022/04/25 05:13:28;;;;;;;2.95;1.02;;;;;;;15.28;58.00;101329.94;4991622;28;20157;-68
2022/04/25 05:15:56;;;;;;;2.45;1.00;;;;;;;15.22;58.55;101333.28;4991511;28;20141;-67
2022/04/25 05:18:25;;;;;;;4.00;1.23;;;;;;;15.13;61.79;101330.50;4991393;28;20046;-68
2022/04/25 05:20:53;;;;;;;5.10;1.25;;;;;;;14.96;60.14;101335.38;4990956;28;20054;-69
2022/04/25 05:23:22;;;;;;;2.40;1.00;;;;;;;14.91;60.20;101325.69;4991236;28;20504;-68
2022/04/25 05:25:50;;;;;;;2.55;1.15;;;;;;;14.87;60.02;101320.41;4992045;28;20134;-68
2022/04/25 05:28:19;;;;;;;3.78;1.30;;;;;;;14.88;60.98;101322.16;4991359;28;20082;-67
2022/04/25 05:30:49;;;;;;;3.08;0.98;;;;;;;14.79;62.32;101329.78;4992257;28;20050;-67
2022/04/25 05:33:19;;;;;;;3.85;1.10;;;;;;;14.64;62.45;101327.75;4991282;28;20535;-68
2022/04/25 05:35:48;;;;;;;2.28;1.08;;;;;;;14.57;62.40;101330.19;4991582;28;20565;-68
2022/04/25 05:38:16;;;;;;;3.92;1.20;;;;;;;14.54;63.29;101320.56;4991725;28;20125;-67
2022/04/25 05:40:45;;;;;;;2.97;1.13;;;;;;;14.53;62.33;101317.91;4991899;28;20129;-66
2022/04/25 05:43:13;;;;;;;2.63;1.30;;;;;;;14.52;62.78;101321.34;4991110;28;20197;-67
2022/04/25 05:45:45;;;;;;;1.60;0.73;;;;;;;14.50;63.66;101321.31;4991369;28;20089;-67
2022/04/25 05:53:46;;;;;;;1.73;0.93;;;;;;;14.20;65.83;101321.47;4991573;28;20065;-67
2022/04/25 05:56:14;;;;;;;3.03;1.00;;;;;;;14.18;65.87;101323.19;4993834;28;20092;-68
2022/04/25 05:58:42;;;;;;;5.05;1.50;;;;;;;14.18;66.64;101312.78;4991670;28;20161;-67
2022/04/25 06:01:11;;;;;;;2.65;1.20;;;;;;;14.16;66.69;101320.53;4990788;28;20125;-67
2022/04/25 06:03:41;;;;;;;2.50;1.10;;;;;;;14.11;67.40;101316.03;4990488;28;20135;-67
2022/04/25 06:06:09;;;;;;;2.40;0.93;;;;;;;14.04;68.15;101320.22;4990876;28;20055;-68
2022/04/25 06:08:38;;;;;;;2.63;0.90;;;;;;;13.98;69.05;101314.88;4990052;28;20073;-67
2022/04/25 06:11:06;;;;;;;5.22;0.88;;;;;;;13.87;70.13;101319.81;4990556;28;20050;-68
2022/04/25 06:13:35;;;;;;;3.10;1.10;;;;;;;13.81;68.97;101320.56;4990437;28;20101;-67
2022/04/25 06:16:05;;;;;;;2.70;0.85;;;;;;;13.80;69.60;101323.13;4990684;28;20090;-67
2022/04/25 06:18:33;;;;;;;1.88;1.02;;;;;;;13.80;68.72;101317.91;4990660;28;20050;-68
2022/04/25 06:21:03;;;;;;;2.45;1.27;;;;;;;13.78;70.55;101323.06;4990235;28;20062;-68
2022/04/25 06:23:32;;;;;;;1.73;0.68;;;;;;;13.74;70.34;101317.75;4990030;28;20161;-67
2022/04/25 06:26:00;;;;;;;3.08;0.90;;;;;;;13.70;70.51;101322.00;4990651;28;20042;-67
2022/04/25 06:28:29;;;;;;;3.08;1.13;;;;;;;13.67;69.86;101323.63;4990272;28;20085;-67
2022/04/25 06:30:58;;;;;;;5.03;1.30;;;;;;;13.68;69.28;101328.00;4990751;28;20077;-67
2022/04/25 06:33:27;;;;;;;1.92;1.05;;;;;;;13.73;69.58;101331.59;4989531;28;20050;-68
2022/04/25 06:35:55;;;;;;;6.25;1.55;;;;;;;13.76;69.40;101331.66;4990068;28;20508;-68
2022/04/25 06:38:25;;;;;;;4.95;1.45;;;;;;;13.74;68.23;101320.34;4990303;28;20081;-68
2022/04/25 06:40:54;;;;;;;4.55;1.83;;;;;;;13.79;68.19;101331.78;4990593;28;20101;-69
2022/04/25 06:43:22;;;;;;;2.85;1.67;;;;;;;13.75;68.25;101324.72;4989296;28;20050;-68
2022/04/25 06:45:50;;;;;;;7.00;2.65;;;;;;;13.73;68.93;101318.59;4990588;28;20129;-68
2022/04/25 06:48:19;;;;;;;5.90;1.35;;;;;;;13.72;69.96;101319.41;4989616;28;20128;-67
2022/04/25 06:50:48;;;;;;;5.40;1.60;;;;;;;13.65;70.23;101317.50;4993531;28;20050;-68
2022/04/25 06:53:16;;;;;;;4.22;1.48;;;;;;;13.61;68.80;101321.75;4990546;28;20133;-68
2022/04/25 06:55:46;;;;;;;7.47;1.85;;;;;;;13.61;69.05;101321.75;4990224;28;20540;-68
2022/04/25 06:58:14;;;;;;;7.70;2.03;;;;;;;13.60;68.94;101322.59;4989568;28;20052;-69
2022/04/25 07:00:43;;;;;;;7.18;1.30;;;;;;;13.58;69.29;101322.56;4990155;28;20050;-68
2022/04/25 07:03:12;;;;;;;5.15;1.73;;;;;;;13.55;69.23;101322.47;4989568;28;20548;-68
2022/04/25 07:05:42;;;;;;;5.15;1.63;;;;;;;13.53;68.62;101311.16;4989931;28;20086;-68
2022/04/25 07:08:11;;;;;;;3.97;1.80;;;;;;;13.50;69.75;101318.00;4989292;28;20050;-68
2022/04/25 07:10:39;;;;;;;4.25;1.75;;;;;;;13.38;70.44;101311.63;4989231;28;20129;-68
2022/04/25 07:13:09;;;;;;;3.78;1.67;;;;;;;13.38;69.76;101321.16;4989711;28;20038;-68
2022/04/25 07:15:38;;;;;;;7.47;2.05;;;;;;;13.38;69.89;101323.75;4989590;28;20050;-69
2022/04/25 07:18:07;;;;;;;5.35;1.80;;;;;;;13.39;69.27;101317.72;4989515;28;20046;-69
2022/04/25 07:20:35;;;;;;;5.07;2.03;;;;;;;13.40;68.87;101314.28;4988990;28;20145;-68
2022/04/25 07:28:52;;;;;;;9.27;2.13;;;;;;;13.46;68.37;101322.22;4989754;28;20598;-69
2022/04/25 07:31:21;;;;;;;9.48;2.40;;;;;;;13.48;68.31;101330.94;4989599;28;20082;-69
2022/04/25 07:33:50;;;;;;;6.13;2.05;;;;;;;13.51;68.67;101335.34;4988969;28;20078;-68
2022/04/25 07:36:21;;;;;;;8.13;2.53;;;;;;;13.49;69.07;101322.31;4989365;28;20503;-68
2022/04/25 07:38:50;;;;;;;6.18;2.33;;;;;;;13.44;69.18;101331.69;4989875;28;20096;-69
2022/04/25 07:41:18;;;;;;;7.32;2.15;;;;;;;13.44;69.85;101323.91;4989112;28;20051;-68
2022/04/25 07:43:48;;;;;;;4.72;2.10;;;;;;;13.42;70.26;101330.78;4989588;28;20112;-68
2022/04/25 07:46:20;;;;;;;8.13;2.35;;;;;;;13.40;69.78;101333.34;4990107;28;20122;-69
2022/04/25 07:48:48;;;;;;;4.70;1.83;;;;;;;13.36;69.70;101331.50;4991554;28;20054;-69
2022/04/25 07:51:17;;;;;;;11.32;3.08;;;;;;;13.39;70.06;101341.09;4989094;28;20104;-68
2022/04/25 07:53:46;;;;;;;4.50;1.55;;;;;;;13.38;70.42;101344.56;4989013;28;20140;-68
2022/04/25 07:56:14;;;;;;;5.88;2.03;;;;;;;13.36;69.83;101341.03;4989213;28;20112;-68
2022/04/25 07:58:42;;;;;;;3.30;1.83;;;;;;;13.38;70.14;101335.03;4988717;28;20093;-68
2022/04/25 08:01:13;;;;;;;3.45;2.03;;;;;;;13.40;70.23;101342.88;4989167;28;20050;-68
2022/04/25 08:03:42;;;;;;;3.50;2.00;;;;;;;13.39;71.96;101341.09;4988665;28;20520;-68
2022/04/25 08:06:11;;;;;;;6.60;2.00;;;;;;;13.32;72.73;101333.97;4988515;28;20047;-67
2022/04/25 08:08:39;;;;;;;7.50;2.53;;;;;;;13.29;72.95;101328.69;4988441;28;20413;-68
2022/04/25 08:11:07;;;;;;;3.40;1.90;;;;;;;13.25;73.66;101330.28;4988724;28;20046;-67
2022/04/25 08:19:07;;;;;;;5.53;2.40;;;;;;;13.12;75.70;101321.25;4988800;28;20066;-68
2022/04/25 08:21:36;;;;;;;2.78;1.73;;;;;;;13.10;76.32;101320.38;4988386;28;20046;-67
2022/04/25 08:24:05;;;;;;;6.22;2.45;;;;;;;13.10;76.23;101332.44;4988860;28;20061;-68
2022/04/25 08:26:34;;;;;;;3.35;1.80;;;;;;;13.13;76.93;101333.44;4988738;28;20120;-68
2022/04/25 08:29:02;;;;;;;5.15;1.85;;;;;;;13.14;76.78;101332.56;4989179;28;20133;-68
2022/04/25 08:31:33;;;;;;;5.38;1.98;;;;;;;13.13;76.88;101328.22;4988620;28;20047;-68
2022/04/25 08:34:02;;;;;;;4.45;1.63;;;;;;;13.16;76.79;101328.31;4988602;28;20058;-68
2022/04/25 08:36:31;;;;;;;5.70;2.03;;;;;;;13.19;77.01;101328.41;4988611;28;20062;-67
2022/04/25 08:39:00;;;;;;;5.32;1.90;;;;;;;13.19;79.61;101322.31;4988642;28;20166;-68
2022/04/25 08:41:32;;;;;;;6.70;1.80;;;;;;;13.17;77.55;101311.91;4988967;28;20488;-67
2022/04/25 08:44:01;;;;;;;5.43;1.85;;;;;;;13.21;77.56;101311.13;4991652;28;20061;-68
2022/04/25 08:46:35;;;;;;;6.28;1.77;;;;;;;13.28;78.20;101314.81;4993134;28;20053;-68
2022/04/25 08:49:05;;;;;;;4.82;2.42;;;;;;;13.31;78.61;101311.41;4992346;28;20078;-68
2022/04/25 08:51:37;;;;;;;5.85;1.60;;;;;;;13.31;76.74;101312.31;4992276;28;20057;-68
2022/04/25 08:54:08;;;;;;;2.83;1.85;;;;;;;13.36;77.29;101304.63;4992405;28;20057;-68
2022/04/25 08:56:38;;;;;;;4.80;2.10;;;;;;;13.43;76.66;101309.16;4991960;28;20054;-68
2022/04/25 08:59:08;;;;;;;4.82;1.70;;;;;;;13.47;78.15;101297.09;4992066;28;20109;-68
2022/04/25 09:01:40;;;;;;;3.60;1.63;;;;;;;13.45;77.65;101307.47;4991889;28;20050;-68
2022/04/25 09:04:09;;;;;;;5.15;1.80;;;;;;;13.45;75.94;101306.59;4992255;28;20082;-68
2022/04/25 09:06:37;;;;;;;6.78;1.75;;;;;;;13.46;76.13;101306.63;4992034;28;20121;-68
2022/04/25 09:09:06;;;;;;;4.82;2.05;;;;;;;13.49;75.48;101301.53;4991803;28;20046;-69
2022/04/25 09:14:20;;;;;;;3.88;1.63;;;;;;;13.51;75.78;101302.41;4991970;28;20625;-69
2022/04/25 09:16:51;;;;;;;3.63;1.60;;;;;;;13.52;76.83;101301.59;4992005;28;20086;-67
2022/04/25 09:19:20;;;;;;;3.42;1.48;;;;;;;13.46;76.28;101291.03;4991202;28;20461;-69
2022/04/25 09:21:48;;;;;;;2.78;1.75;;;;;;;13.53;77.80;101289.47;4991582;28;20393;-69
2022/04/25 09:24:25;;;;;;;3.90;1.90;;;;;;;13.50;77.05;101298.06;4991450;28;20101;-68
2022/04/25 09:26:54;;;;;;;2.35;1.48;;;;;;;13.47;77.59;101287.59;4991886;28;20133;-68
2022/04/25 09:29:30;;;;;;;4.50;1.67;;;;;;;13.49;78.62;101280.72;4991974;28;20054;-68
2022/04/25 09:32:00;;;;;;;3.03;1.50;;;;;;;13.49;78.06;101283.34;4992244;28;20047;-68
2022/04/25 09:37:16;;;;;;;4.40;1.83;;;;;;;13.54;77.94;101284.31;4992014;28;20072;-68
2022/04/25 09:39:45;;;;;;;5.75;1.90;;;;;;;13.57;77.88;101288.72;4995150;28;20097;-68
2022/04/25 09:42:14;;;;;;;3.50;1.85;;;;;;;13.60;78.92;101296.59;4991876;28;20066;-67
2022/04/25 09:44:59;;;;;;;3.35;1.80;;;;;;;13.64;78.95;101298.44;4992032;28;20062;-68
2022/04/25 09:47:33;;;;;;;3.78;1.73;;;;;;;13.66;80.02;101293.28;4991309;28;20101;-68
2022/04/25 09:50:08;;;;;;;6.80;1.70;;;;;;;13.68;81.37;101299.41;4991368;28;20058;-68
2022/04/25 09:52:51;;;;;;;2.17;1.35;;;;;;;13.64;82.44;101297.56;4991593;28;20156;-69
2022/04/25 09:55:20;;;;;;;5.07;1.80;;;;;;;13.55;88.04;101308.59;4990638;28;20097;-69
2022/04/25 09:57:50;;;;;;;5.68;1.88;;;;;;;13.47;91.56;101298.00;4991168;28;20073;-69
2022/04/25 10:00:36;;;;;;;5.75;1.98;;;;;;;13.39;91.42;101305.59;4991176;28;20042;-70
2022/04/25 10:03:08;;;;;;;4.38;2.03;;;;;;;13.25;94.69;101300.84;4990465;28;20057;-71
2022/04/25 10:05:41;;;;;;;6.38;1.95;;;;;;;13.13;99.34;101293.59;4990901;28;20078;-70
2022/04/25 10:08:11;;;;;;;5.20;1.90;;;;;;;12.95;100.00;101291.34;4990224;28;20142;-71
2022/04/25 10:10:49;;;;;;;4.07;2.25;;;;;;;12.88;100.00;101294.59;4991105;28;20054;-71
2022/04/25 10:13:18;;;;;;;4.22;1.75;;;;;;;12.77;100.00;101296.88;4990590;28;20397;-70
2022/04/25 10:15:48;;;;;;;5.30;2.00;;;;;;;12.70;100.00;101290.63;4990532;28;20100;-71
2022/04/25 10:18:18;;;;;;;4.15;2.15;;;;;;;12.63;100.00;101283.50;4990990;28;20578;-71
2022/04/25 10:20:47;;;;;;;5.13;1.95;;;;;;;12.61;100.00;101285.16;4990438;28;20093;-70
2022/04/25 10:23:17;;;;;;;2.65;1.48;;;;;;;12.58;100.00;101300.66;4990152;28;20050;-70
2022/04/25 10:25:49;;;;;;;6.13;1.80;;;;;;;12.54;100.00;101288.41;4990502;28;20116;-70
2022/04/25 10:28:21;;;;;;;3.17;1.80;;;;;;;12.50;100.00;101292.63;4990428;28;20052;-70
2022/04/25 10:30:51;;;;;;;2.85;1.65;;;;;;;12.49;100.00;101295.19;4991183;28;20050;-70
2022/04/25 10:33:23;;;;;;;7.15;2.00;;;;;;;12.44;100.00;101296.75;4990398;28;20057;-69
2022/04/25 10:35:53;;;;;;;5.72;1.90;;;;;;;12.38;100.00;101296.59;4992877;28;20046;-70
2022/04/25 10:38:50;;;;;;;5.28;1.77;;;;;;;12.33;100.00;101302.50;4991706;28;20540;-69
2022/04/25 10:44:56;;;;;;;4.28;1.90;;;;;;;12.27;100.00;101278.94;4990648;28;20192;-70
2022/04/25 10:47:26;;;;;;;10.10;2.40;;;;;;;12.32;100.00;101292.06;4989962;28;20062;-70
2022/04/25 10:50:08;;;;;;;3.78;1.58;;;;;;;12.30;100.00;101297.22;4989897;28;20047;-69
2022/04/25 10:53:03;;;;;;;5.23;2.10;;;;;;;12.27;100.00;101294.53;4990361;28;20503;-70
2022/04/25 10:55:45;;;;;;;6.85;2.17;;;;;;;12.28;100.00;101291.09;4990034;28;20773;-70
2022/04/25 10:58:23;;;;;;;4.40;1.70;;;;;;;12.26;100.00;101284.13;4989761;28;20064;-69
2022/04/25 11:00:56;;;;;;;4.07;1.67;;;;;;;12.21;100.00;101286.56;4990147;28;20050;-70
2022/04/25 11:03:32;;;;;;;6.43;1.80;;;;;;;12.18;100.00;101289.03;4989149;28;20046;-70
2022/04/25 11:06:05;;;;;;;3.17;1.92;;;;;;;12.18;100.00;101294.22;4989543;28;20052;-70
2022/04/25 11:08:41;;;;;;;4.68;1.67;;;;;;;12.14;100.00;101287.22;4988633;28;20495;-70
2022/04/25 11:11:18;;;;;;;4.63;1.73;;;;;;;12.15;100.00;101294.16;4989686;28;20113;-71
2022/04/25 11:14:14;;;;;;;3.67;1.92;;;;;;;12.16;100.00;101290.72;4989237;28;20146;-70
2022/04/25 11:16:42;;;;;;;4.03;1.60;;;;;;;12.15;100.00;101299.34;4936996;28;20148;-70
2022/04/25 11:19:22;;;;;;;4.07;1.92;;;;;;;12.15;100.00;101294.16;4989591;28;20484;-69
2022/04/25 11:21:55;;;;;;;2.42;1.35;;;;;;;12.13;100.00;101285.44;4951891;28;20065;-70
2022/04/25 11:24:38;;;;;;;4.57;1.80;;;;;;;12.16;100.00;101290.72;4950476;29;20051;-70
2022/04/25 11:27:11;;;;;;;3.92;1.65;;;;;;;12.13;100.00;101290.63;4950965;29;20046;-71
2022/04/25 11:29:47;;;;;;;4.25;1.50;;;;;;;12.14;100.00;101295.00;4951673;29;20047;-70
2022/04/25 11:32:35;;;;;;;4.43;1.70;;;;;;;12.13;100.00;101291.50;4952419;29;20055;-70
2022/04/25 11:35:05;;;;;;;2.10;1.30;;;;;;;12.14;100.00;101292.41;4951449;29;20055;-71
2022/04/25 11:37:36;;;;;;;2.55;1.38;;;;;;;12.12;100.00;101291.47;4949361;29;20142;-71
2022/04/25 11:40:12;;;;;;;4.70;1.60;;;;;;;12.13;100.00;101296.69;4945355;28;20043;-70
2022/04/25 11:42:40;;;;;;;4.55;1.63;;;;;;;12.07;100.00;101300.78;4950836;28;20246;-71
2022/04/25 11:45:09;;;;;;;6.95;1.48;;;;;;;12.07;100.00;101300.78;4951135;29;20126;-69
2022/04/25 11:47:37;;;;;;;4.75;1.80;;;;;;;12.10;100.00;101303.50;4950314;29;20102;-71
2022/04/25 11:50:10;;;;;;;4.35;1.50;;;;;;;12.12;100.00;101307.91;4950380;29;20078;-71
2022/04/25 11:52:48;;;;;;;4.93;1.88;;;;;;;12.09;100.00;101301.72;4948969;29;20051;-71
2022/04/25 11:55:17;;;;;;;3.22;1.45;;;;;;;12.11;100.00;101306.13;4950308;29;20146;-71
2022/04/25 11:57:46;;;;;;;3.20;1.80;;;;;;;12.10;100.00;101298.31;4948891;28;20145;-72
2022/04/25 12:00:24;;;;;;;4.65;1.83;;;;;;;12.15;100.00;101304.53;4950693;29;20053;-71
2022/04/25 12:02:53;;;;;;;10.35;2.28;;;;;;;12.19;100.00;101300.31;4949687;29;20059;-71
2022/04/25 12:05:29;;;;;;;3.55;1.73;;;;;;;12.20;100.00;101302.06;4950684;29;20517;-70
2022/04/25 12:16:18;;;;;;;2.92;2.03;;;;;;;12.22;100.00;101309.06;4950642;29;20114;-71
2022/04/25 12:18:51;;;;;;;4.10;1.52;;;;;;;12.26;100.00;101300.56;4951407;28;20055;-70
2022/04/25 12:21:21;;;;;;;4.65;1.92;;;;;;;12.29;100.00;101303.25;4985424;28;20552;-71